Time;durP1;ratioP1;P1;durP2;ratioP2;P2;SDS_P1;SDS_P2;PMS_P1;PMS_P2;Temp;Humidity;BMP_temperature;BMP_pressure;BME280_temperature;BME280_humidity;BME280_pressure;Samples;Min_cycle;Max_cycle;Signal;HPM_P1;HPM_P2
2022/06/01 00:00:34;;;;;;;15.80;10.40;;;;;;;19.44;100.00;101376.06;2073398;28;20235;-64
2022/06/01 00:01:35;;;;;;;18.93;11.43;;;;;;;19.95;100.00;101460.38;2073060;28;20170;-65
2022/06/01 00:02:37;;;;;;;15.87;10.47;;;;;;;19.97;100.00;101469.09;2073400;28;20180;-64
2022/06/01 00:03:40;;;;;;;14.57;10.50;;;;;;;19.97;100.00;101469.91;2073065;28;20250;-65
2022/06/01 00:04:41;;;;;;;17.73;11.70;;;;;;;20.01;100.00;101469.72;2073350;28;20424;-64
2022/06/01 00:05:42;;;;;;;18.00;12.10;;;;;;;19.47;100.00;101396.84;2073229;28;20444;-64
2022/06/01 00:06:43;;;;;;;17.57;13.63;;;;;;;19.92;100.00;101464.91;2073342;28;20309;-64
2022/06/01 00:07:43;;;;;;;18.13;12.73;;;;;;;19.90;100.00;101453.34;2072373;28;20413;-65
2022/06/01 00:08:44;;;;;;;19.70;13.47;;;;;;;19.97;100.00;101464.28;2073449;28;20174;-64
2022/06/01 00:09:44;;;;;;;17.23;12.07;;;;;;;19.95;100.00;101472.38;2073422;28;20528;-65
2022/06/01 00:10:45;;;;;;;16.90;11.90;;;;;;;19.80;100.00;101459.50;2073319;28;20176;-64
2022/06/01 00:11:45;;;;;;;21.77;12.87;;;;;;;19.85;100.00;101468.06;2073233;28;20173;-65
2022/06/01 00:12:46;;;;;;;17.70;13.17;;;;;;;19.84;100.00;101463.69;2073186;28;20299;-64
2022/06/01 00:13:46;;;;;;;21.37;13.87;;;;;;;19.85;100.00;101470.13;2073431;28;20178;-64
2022/06/01 00:14:47;;;;;;;17.40;13.73;;;;;;;19.83;100.00;101470.59;2073344;28;20201;-64
2022/06/01 00:15:47;;;;;;;17.10;13.07;;;;;;;19.02;100.00;101363.25;2073121;28;20255;-64
2022/06/01 00:16:49;;;;;;;18.93;12.70;;;;;;;19.81;100.00;101475.88;2073424;28;20210;-65
2022/06/01 00:17:50;;;;;;;22.73;13.93;;;;;;;19.78;100.00;101478.88;2073179;28;20170;-64
2022/06/01 00:18:50;;;;;;;19.40;14.43;;;;;;;19.27;100.00;101399.41;2064420;28;20429;-64
2022/06/01 00:19:51;;;;;;;19.40;15.60;;;;;;;19.73;100.00;101476.72;2064441;28;20529;-65
2022/06/01 00:20:53;;;;;;;20.97;15.13;;;;;;;19.70;100.00;101463.63;2073093;28;20211;-64
2022/06/01 00:23:12;;;;;;;18.67;15.13;;;;;;;19.76;100.00;101481.41;2073398;28;20388;-64
2022/06/01 00:24:12;;;;;;;24.30;14.63;;;;;;;19.58;100.00;101458.94;2073178;28;20972;-65
2022/06/01 00:25:14;;;;;;;20.60;15.43;;;;;;;19.27;100.00;101422.69;2073303;28;20224;-64
2022/06/01 00:26:15;;;;;;;17.47;13.90;;;;;;;19.70;100.00;101480.47;2064308;28;20183;-64
2022/06/01 00:27:17;;;;;;;19.57;15.77;;;;;;;19.75;100.00;101491.09;2064596;28;20418;-65
2022/06/01 00:28:18;;;;;;;21.00;15.17;;;;;;;19.42;100.00;101440.44;2072984;28;20201;-65
2022/06/01 00:29:18;;;;;;;22.60;14.97;;;;;;;19.76;100.00;101489.84;2073202;28;20519;-64
2022/06/01 00:30:19;;;;;;;18.23;14.20;;;;;;;19.77;100.00;101491.38;2073068;28;20177;-64
2022/06/01 00:31:20;;;;;;;17.33;13.70;;;;;;;19.72;100.00;101492.81;2064330;28;20265;-64
2022/06/01 00:32:20;;;;;;;19.40;14.03;;;;;;;19.31;100.00;101414.06;2064368;28;20416;-64
2022/06/01 00:33:21;;;;;;;18.30;13.73;;;;;;;19.70;100.00;101470.00;2073034;28;20565;-64
2022/06/01 00:34:21;;;;;;;21.80;13.60;;;;;;;19.16;100.00;101390.69;2073148;28;20182;-65
2022/06/01 00:35:23;;;;;;;17.23;12.87;;;;;;;19.73;100.00;101483.13;2064429;28;20267;-64
2022/06/01 00:36:23;;;;;;;17.93;12.57;;;;;;;19.64;100.00;101487.97;2064595;28;20791;-64
2022/06/01 00:37:24;;;;;;;17.97;12.30;;;;;;;19.08;100.00;101412.69;2073307;28;20494;-65
2022/06/01 00:38:25;;;;;;;23.67;14.07;;;;;;;19.07;100.00;101425.19;2072994;28;20189;-65
2022/06/01 00:39:26;;;;;;;20.13;15.30;;;;;;;19.25;100.00;101491.84;2073245;28;20436;-65
2022/06/01 00:40:28;;;;;;;22.20;15.60;;;;;;;19.19;100.00;101488.09;2064387;28;20237;-64
2022/06/01 00:41:29;;;;;;;21.13;15.40;;;;;;;19.16;100.00;101491.81;2056473;28;20190;-64
2022/06/01 00:42:32;;;;;;;23.77;16.33;;;;;;;19.11;100.00;101487.63;2064410;28;20418;-64
2022/06/01 00:43:45;;;;;;;25.40;15.87;;;;;;;19.15;100.00;101481.84;2072977;28;20424;-65
2022/06/01 00:44:47;;;;;;;21.40;15.20;;;;;;;19.19;100.00;101486.03;2073188;28;20523;-65
2022/06/01 00:45:47;;;;;;;23.17;14.77;;;;;;;19.22;100.00;101481.53;2072903;28;20420;-65
2022/06/01 00:46:48;;;;;;;23.20;14.70;;;;;;;18.66;100.00;101392.19;2073073;28;20430;-64
2022/06/01 00:47:49;;;;;;;20.67;14.63;;;;;;;19.25;100.00;101481.38;2073142;28;20553;-65
2022/06/01 00:48:54;;;;;;;23.40;15.13;;;;;;;19.28;100.00;101476.84;2072990;28;20300;-64
2022/06/01 00:50:00;;;;;;;20.27;14.20;;;;;;;19.30;100.00;101477.16;2073062;28;20416;-65
2022/06/01 00:51:01;;;;;;;23.07;14.47;;;;;;;18.91;100.00;101421.94;2072776;28;21012;-64
2022/06/01 00:52:02;;;;;;;20.63;14.23;;;;;;;19.00;100.00;101433.97;2073024;28;20439;-65
2022/06/01 00:53:08;;;;;;;24.37;14.43;;;;;;;19.36;100.00;101490.13;2073053;28;20939;-65
2022/06/01 00:54:09;;;;;;;21.53;13.43;;;;;;;19.35;100.00;101474.47;2072984;28;20412;-65
2022/06/01 00:55:14;;;;;;;23.33;13.40;;;;;;;19.35;100.00;101474.47;2073075;28;20953;-65
2022/06/01 00:56:19;;;;;;;24.83;13.03;;;;;;;19.30;100.00;101468.72;2073077;28;20546;-64
2022/06/01 00:57:20;;;;;;;21.60;13.87;;;;;;;19.32;100.00;101471.84;2073165;28;20439;-64
2022/06/01 00:58:25;;;;;;;20.37;13.80;;;;;;;19.29;100.00;101472.81;2072851;28;20420;-65
2022/06/01 00:59:33;;;;;;;22.13;14.37;;;;;;;18.68;100.00;101378.44;2073129;28;20184;-65
2022/06/01 01:00:35;;;;;;;20.97;12.37;;;;;;;18.31;100.00;101326.38;2073022;28;20446;-65
2022/06/01 01:01:36;;;;;;;21.50;12.63;;;;;;;19.27;100.00;101476.06;2072951;28;20453;-64
2022/06/01 01:02:37;;;;;;;20.17;13.57;;;;;;;19.16;100.00;101475.75;2073131;28;20427;-64
2022/06/01 01:03:41;;;;;;;25.03;14.87;;;;;;;19.18;100.00;101473.25;2072884;28;20447;-64
2022/06/01 01:04:43;;;;;;;20.00;14.10;;;;;;;18.80;100.00;101402.00;2073026;28;20413;-64
2022/06/01 01:05:48;;;;;;;20.63;14.03;;;;;;;19.21;100.00;101469.50;2072918;28;20420;-64
2022/06/01 01:06:49;;;;;;;21.53;14.40;;;;;;;19.22;100.00;101465.47;2072938;28;20477;-64
2022/06/01 01:07:53;;;;;;;21.60;14.43;;;;;;;19.23;100.00;101469.84;2072962;28;20937;-64
2022/06/01 01:08:54;;;;;;;21.60;13.73;;;;;;;18.86;100.00;101414.16;2072910;28;20424;-64
2022/06/01 01:09:54;;;;;;;22.00;13.33;;;;;;;19.25;100.00;101467.31;2064287;28;20480;-65
2022/06/01 01:10:54;;;;;;;22.23;13.53;;;;;;;19.22;100.00;101465.47;2064234;28;20519;-66
2022/06/01 01:12:01;;;;;;;26.60;13.87;;;;;;;19.31;100.00;101473.88;2072999;28;20615;-64
2022/06/01 01:13:06;;;;;;;23.50;13.93;;;;;;;19.32;100.00;101466.22;2072801;28;20233;-64
2022/06/01 01:14:06;;;;;;;22.87;13.97;;;;;;;19.33;100.00;101456.53;2072843;28;20447;-64
2022/06/01 01:15:07;;;;;;;21.63;13.90;;;;;;;19.34;100.00;101463.72;2072875;28;21015;-65
2022/06/01 01:16:10;;;;;;;20.93;13.97;;;;;;;19.20;100.00;101453.13;2072831;28;20181;-64
2022/06/01 01:17:11;;;;;;;21.30;13.60;;;;;;;19.36;100.00;101473.25;2073035;28;20184;-65
2022/06/01 01:18:17;;;;;;;25.27;15.13;;;;;;;19.25;100.00;101460.94;2064122;28;20443;-65
2022/06/01 01:19:29;;;;;;;23.63;14.07;;;;;;;18.99;100.00;101431.63;2066175;28;20880;-64
2022/06/01 01:20:31;;;;;;;25.40;14.47;;;;;;;19.32;100.00;101466.22;2074408;28;20459;-64
2022/06/01 01:21:46;;;;;;;30.83;15.40;;;;;;;19.33;100.00;101459.34;2074346;28;20486;-65
2022/06/01 01:22:59;;;;;;;31.27;15.33;;;;;;;18.82;100.00;101393.88;2074582;28;20933;-64
2022/06/01 01:24:18;;;;;;;23.67;14.03;;;;;;;19.29;100.00;101470.75;2074378;28;20422;-65
2022/06/01 01:25:21;;;;;;;27.47;14.03;;;;;;;19.30;100.00;101471.53;2074977;28;20404;-65
2022/06/01 01:26:24;;;;;;;26.67;14.50;;;;;;;19.26;100.00;101470.91;2074394;28;20797;-64
2022/06/01 01:27:24;;;;;;;28.53;13.63;;;;;;;19.35;100.00;101474.47;2074596;28;20514;-64
2022/06/01 01:28:25;;;;;;;27.30;12.07;;;;;;;19.33;100.00;101474.19;2074320;28;20416;-65
2022/06/01 01:29:43;;;;;;;23.43;12.47;;;;;;;19.27;100.00;101475.28;2074470;28;20197;-65
2022/06/01 01:30:58;;;;;;;19.77;12.30;;;;;;;19.35;100.00;101463.22;2074508;28;20177;-65
2022/06/01 01:31:59;;;;;;;19.90;11.73;;;;;;;19.36;100.00;101464.81;2074436;28;20422;-64
2022/06/01 01:33:28;;;;;;;16.60;11.30;;;;;;;18.92;100.00;101393.38;2074483;28;20419;-64
2022/06/01 01:34:29;;;;;;;17.60;10.97;;;;;;;18.99;100.00;101411.94;2063822;28;20266;-64
2022/06/01 01:35:29;;;;;;;19.97;12.27;;;;;;;19.21;100.00;101447.03;2065812;28;20926;-65
2022/06/01 01:36:45;;;;;;;19.20;12.63;;;;;;;19.27;100.00;101459.22;2074495;28;20180;-65
2022/06/01 01:37:48;;;;;;;18.13;11.93;;;;;;;19.29;100.00;101455.94;2074584;28;20684;-64
2022/06/01 01:39:01;;;;;;;21.93;13.00;;;;;;;19.29;100.00;101453.88;2074272;28;20428;-64
2022/06/01 01:40:02;;;;;;;22.53;12.53;;;;;;;19.33;100.00;101462.94;2065754;28;20448;-64
2022/06/01 01:41:04;;;;;;;19.20;12.60;;;;;;;19.33;100.00;101465.75;2065221;28;20434;-64
2022/06/01 01:42:06;;;;;;;23.67;12.97;;;;;;;18.96;100.00;101401.66;2074361;28;20238;-65
2022/06/01 01:43:07;;;;;;;21.33;13.40;;;;;;;18.87;100.00;101408.06;2074435;28;20810;-65
2022/06/01 01:44:16;;;;;;;20.33;12.80;;;;;;;19.29;100.00;101462.31;2074206;28;20503;-64
2022/06/01 01:45:25;;;;;;;21.13;12.63;;;;;;;19.30;100.00;101454.69;2074446;28;20166;-64
2022/06/01 01:46:28;;;;;;;18.17;12.07;;;;;;;19.33;100.00;101479.00;2065632;28;20445;-65
2022/06/01 01:47:28;;;;;;;17.40;12.30;;;;;;;19.05;100.00;101416.47;2065982;28;20420;-64
2022/06/01 01:48:30;;;;;;;16.27;11.07;;;;;;;18.84;100.00;101391.38;2074308;28;20452;-65
2022/06/01 01:49:34;;;;;;;18.80;11.10;;;;;;;19.28;100.00;101468.41;2074300;28;20178;-65
2022/06/01 01:50:34;;;;;;;19.80;11.47;;;;;;;19.22;100.00;101462.66;2074266;28;20794;-65
2022/06/01 01:51:35;;;;;;;19.33;11.77;;;;;;;19.11;100.00;101458.75;2074280;28;20425;-64
2022/06/01 01:52:36;;;;;;;16.67;11.83;;;;;;;19.02;100.00;101458.75;2074207;28;20189;-65
2022/06/01 01:53:37;;;;;;;17.30;11.07;;;;;;;18.99;100.00;101460.47;2074156;28;20180;-65
2022/06/01 01:54:57;;;;;;;16.40;11.73;;;;;;;19.02;100.00;101455.94;2074336;28;21080;-64
2022/06/01 01:56:11;;;;;;;17.13;10.77;;;;;;;19.01;100.00;101465.63;2074342;28;20248;-65
2022/06/01 01:57:23;;;;;;;17.33;10.33;;;;;;;18.94;100.00;101444.25;2074442;28;20409;-64
2022/06/01 01:58:41;;;;;;;18.27;10.07;;;;;;;18.47;100.00;101381.44;2074219;28;20412;-64
2022/06/01 02:00:00;;;;;;;18.47;12.10;;;;;;;18.97;100.00;101456.56;2074167;28;20404;-65
2022/06/01 02:01:11;;;;;;;17.07;12.83;;;;;;;18.54;100.00;101392.34;2074076;28;20410;-64
2022/06/01 02:02:32;;;;;;;18.53;12.00;;;;;;;18.92;100.00;101449.56;2074356;28;20407;-65
2022/06/01 02:03:42;;;;;;;19.20;12.40;;;;;;;18.92;100.00;101458.00;2074156;28;20448;-64
2022/06/01 02:06:24;;;;;;;17.77;12.80;;;;;;;18.35;100.00;101373.94;2074264;28;20427;-65
2022/06/01 02:07:33;;;;;;;19.50;12.70;;;;;;;18.37;100.00;101386.25;2074356;28;20401;-65
2022/06/01 02:08:46;;;;;;;13.60;11.40;;;;;;;18.88;100.00;101454.56;2074249;28;20923;-65
2022/06/01 02:12:43;;;;;;;18.73;12.63;;;;;;;18.84;100.00;101464.41;2074206;28;20392;-64
2022/06/01 02:13:45;;;;;;;21.57;12.77;;;;;;;18.78;100.00;101453.00;2073882;28;20495;-64
2022/06/01 02:14:56;;;;;;;22.00;11.60;;;;;;;18.83;100.00;101469.22;2074266;28;20985;-64
2022/06/01 02:15:59;;;;;;;19.50;11.57;;;;;;;18.85;100.00;101461.13;2074028;28;20795;-64
2022/06/01 02:17:14;;;;;;;17.53;11.03;;;;;;;18.38;100.00;101401.06;2074239;28;20486;-64
2022/06/01 02:18:19;;;;;;;16.33;9.83;;;;;;;18.29;100.00;101402.59;2073988;28;20973;-64
2022/06/01 02:19:25;;;;;;;15.63;10.43;;;;;;;18.79;100.00;101470.63;2074186;28;20488;-64
2022/06/01 02:20:40;;;;;;;15.93;11.37;;;;;;;18.75;100.00;101473.59;2064987;28;20425;-65
2022/06/01 02:21:41;;;;;;;15.43;10.83;;;;;;;18.62;100.00;101449.75;2067618;28;20408;-64
2022/06/01 02:22:42;;;;;;;15.17;10.43;;;;;;;18.58;100.00;101447.06;2074045;28;20427;-65
2022/06/01 02:23:43;;;;;;;13.93;10.70;;;;;;;18.62;100.00;101452.56;2081296;28;20184;-64
2022/06/01 02:24:45;;;;;;;15.47;11.60;;;;;;;18.65;100.00;101462.84;2081687;28;20936;-64
2022/06/01 02:25:48;;;;;;;14.50;11.03;;;;;;;18.61;100.00;101463.00;2074077;28;20232;-64
2022/06/01 02:26:50;;;;;;;15.23;10.30;;;;;;;18.23;100.00;101412.13;2074105;28;20421;-65
2022/06/01 02:27:52;;;;;;;15.67;11.50;;;;;;;18.56;100.00;101466.41;2073952;28;20518;-65
2022/06/01 02:29:01;;;;;;;15.50;10.87;;;;;;;17.93;100.00;101377.28;2073985;28;20442;-64
2022/06/01 02:30:10;;;;;;;15.90;11.20;;;;;;;18.47;100.00;101460.03;2073893;28;20487;-65
2022/06/01 02:31:13;;;;;;;21.20;11.53;;;;;;;18.47;100.00;101460.78;2073538;28;20498;-64
2022/06/01 02:32:14;;;;;;;15.97;11.10;;;;;;;18.45;100.00;101459.69;2074029;28;21000;-64
2022/06/01 02:33:23;;;;;;;20.97;11.60;;;;;;;18.39;100.00;101441.91;2073954;28;20956;-64
2022/06/01 02:34:24;;;;;;;16.90;11.60;;;;;;;18.34;100.00;101442.53;2073917;28;20181;-66
2022/06/01 02:35:28;;;;;;;19.33;11.50;;;;;;;18.41;100.00;101450.63;2074063;28;20437;-65
2022/06/01 02:36:30;;;;;;;26.43;11.90;;;;;;;18.19;100.00;101436.72;2074042;28;20435;-65
2022/06/01 02:37:33;;;;;;;23.17;11.43;;;;;;;18.37;100.00;101447.22;2073991;28;20933;-64
2022/06/01 02:38:43;;;;;;;22.10;11.40;;;;;;;18.36;100.00;101446.44;2073940;28;20458;-64
2022/06/01 02:39:52;;;;;;;22.33;12.13;;;;;;;18.38;100.00;101452.34;2073826;28;20420;-65
2022/06/01 02:40:52;;;;;;;25.67;12.73;;;;;;;17.99;100.00;101392.25;2073808;28;20401;-66
2022/06/01 02:42:26;;;;;;;23.53;11.03;;;;;;;18.37;100.00;101441.63;2074029;28;20437;-67
2022/06/01 02:43:27;;;;;;;19.37;12.33;;;;;;;18.35;100.00;101446.91;2073907;28;20158;-66
2022/06/01 02:44:27;;;;;;;23.53;12.20;;;;;;;18.12;100.00;101422.22;2073840;28;20551;-66
2022/06/01 02:45:28;;;;;;;19.67;11.27;;;;;;;18.34;100.00;101451.75;2073996;28;20179;-66
2022/06/01 02:46:29;;;;;;;17.40;11.70;;;;;;;18.19;100.00;101436.72;2073838;28;20212;-66
2022/06/01 02:47:34;;;;;;;21.17;12.40;;;;;;;18.41;100.00;101464.69;2073714;28;20674;-67
2022/06/01 02:48:35;;;;;;;19.80;11.83;;;;;;;17.97;100.00;101443.69;2073820;28;20410;-67
2022/06/01 02:49:36;;;;;;;18.33;11.53;;;;;;;17.90;100.00;101397.09;2081355;28;20431;-66
2022/06/01 02:50:38;;;;;;;20.83;11.33;;;;;;;18.42;100.00;101485.91;2081390;28;20173;-66
2022/06/01 02:51:39;;;;;;;21.50;12.60;;;;;;;18.36;100.00;101477.31;2073800;28;20474;-67
2022/06/01 02:52:40;;;;;;;16.10;10.20;;;;;;;17.88;100.00;101404.41;2081379;28;20853;-66
2022/06/01 02:53:40;;;;;;;19.77;10.30;;;;;;;18.41;100.00;101493.53;2081292;28;20412;-67
2022/06/01 02:54:41;;;;;;;15.97;9.87;;;;;;;18.36;100.00;101488.53;2073838;28;20201;-67
2022/06/01 02:55:41;;;;;;;15.30;9.23;;;;;;;18.29;100.00;101477.59;2064911;28;20651;-67
2022/06/01 02:56:42;;;;;;;12.77;9.97;;;;;;;17.97;100.00;101424.81;2065126;28;20709;-66
2022/06/01 02:57:43;;;;;;;19.43;10.57;;;;;;;18.29;100.00;101483.19;2073890;28;20173;-66
2022/06/01 02:58:43;;;;;;;30.20;11.90;;;;;;;18.26;100.00;101489.72;2073826;28;20178;-66
2022/06/01 02:59:44;;;;;;;20.33;10.87;;;;;;;17.92;100.00;101440.25;2073763;28;20413;-66
2022/06/01 03:00:45;;;;;;;24.63;10.93;;;;;;;17.72;100.00;101418.69;2073523;28;20186;-66
2022/06/01 03:01:46;;;;;;;19.50;10.43;;;;;;;18.22;100.00;101489.09;2065087;28;20253;-67
2022/06/01 03:02:50;;;;;;;17.23;9.73;;;;;;;18.28;100.00;101501.28;2065112;28;20704;-67
2022/06/01 03:03:51;;;;;;;14.53;9.63;;;;;;;17.90;100.00;101430.72;2065546;28;20176;-67
2022/06/01 03:04:52;;;;;;;15.57;9.90;;;;;;;18.13;100.00;101480.66;2073915;28;20410;-67
2022/06/01 03:05:52;;;;;;;15.07;9.97;;;;;;;18.30;100.00;101501.59;2073673;28;20551;-66
2022/06/01 03:06:53;;;;;;;17.20;10.27;;;;;;;18.19;100.00;101482.38;2073852;28;20174;-66
2022/06/01 03:07:55;;;;;;;28.23;11.60;;;;;;;18.32;100.00;101498.31;2073740;28;20174;-66
2022/06/01 03:08:55;;;;;;;28.70;12.27;;;;;;;18.30;100.00;101501.59;2073496;28;20683;-66
2022/06/01 03:09:56;;;;;;;32.40;12.83;;;;;;;18.33;100.00;101502.72;2073756;28;20808;-67
2022/06/01 03:10:56;;;;;;;29.33;11.10;;;;;;;18.29;100.00;101489.56;2073421;28;20183;-66
2022/06/01 03:11:57;;;;;;;23.17;10.77;;;;;;;18.30;100.00;101487.56;2073840;28;20209;-66
2022/06/01 03:12:58;;;;;;;23.67;9.90;;;;;;;18.24;100.00;101495.78;2073723;28;20707;-67
2022/06/01 03:13:58;;;;;;;15.67;8.30;;;;;;;18.45;100.00;101507.41;2073684;28;20188;-66
2022/06/01 03:14:59;;;;;;;18.60;8.63;;;;;;;18.24;100.00;101473.34;2073586;28;20206;-66
2022/06/01 03:16:00;;;;;;;14.63;8.50;;;;;;;18.49;100.00;101508.84;2073513;28;20668;-67
2022/06/01 03:17:00;;;;;;;14.43;8.30;;;;;;;18.38;100.00;101500.06;2073760;28;20207;-67
2022/06/01 03:18:01;;;;;;;15.30;8.80;;;;;;;18.54;100.00;101516.66;2064886;28;20623;-66
2022/06/01 03:19:01;;;;;;;16.70;9.57;;;;;;;18.49;100.00;101522.88;2064881;28;20193;-67
2022/06/01 03:20:07;;;;;;;14.20;9.70;;;;;;;18.48;100.00;101517.72;2073694;28;20178;-66
2022/06/01 03:21:08;;;;;;;15.60;9.43;;;;;;;18.49;100.00;101517.25;2073572;28;20177;-66
2022/06/01 03:22:08;;;;;;;18.33;10.23;;;;;;;18.46;100.00;101520.97;2073614;28;20416;-67
2022/06/01 03:23:10;;;;;;;16.30;11.10;;;;;;;18.42;100.00;101525.19;2073507;28;20193;-66
2022/06/01 03:24:10;;;;;;;17.07;11.13;;;;;;;18.39;100.00;101518.47;2073520;28;20705;-66
2022/06/01 03:25:15;;;;;;;14.47;11.43;;;;;;;18.41;100.00;101527.22;2073751;28;20914;-66
2022/06/01 03:26:15;;;;;;;16.57;11.20;;;;;;;18.15;100.00;101480.97;2081006;28;20194;-66
2022/06/01 03:27:17;;;;;;;18.70;11.77;;;;;;;18.40;100.00;101508.81;2081361;28;20428;-66
2022/06/01 03:28:18;;;;;;;17.27;11.97;;;;;;;18.58;100.00;101528.47;2064680;28;20179;-66
2022/06/01 03:29:18;;;;;;;20.53;12.40;;;;;;;18.58;100.00;101520.06;2056895;28;20431;-66
2022/06/01 03:32:40;;;;;;;15.70;11.70;;;;;;;18.80;100.00;101536.78;2072129;28;20515;-66
2022/06/01 03:33:42;;;;;;;15.40;11.07;;;;;;;18.85;100.00;101534.16;2073015;28;20431;-66
2022/06/01 03:34:43;;;;;;;15.83;11.80;;;;;;;18.50;100.00;101473.13;2064718;28;20464;-66
2022/06/01 03:35:43;;;;;;;17.17;10.77;;;;;;;18.87;100.00;101542.88;2064829;28;20471;-66
2022/06/01 03:36:44;;;;;;;18.17;12.17;;;;;;;18.94;100.00;101542.56;2073636;28;20205;-66
2022/06/01 03:37:44;;;;;;;17.03;12.17;;;;;;;18.98;100.00;101540.38;2073561;28;20177;-66
2022/06/01 03:38:45;;;;;;;20.90;12.93;;;;;;;19.04;100.00;101537.72;2073528;28;20184;-67
2022/06/01 03:39:46;;;;;;;15.43;11.13;;;;;;;19.08;100.00;101539.13;2073689;28;20179;-66
2022/06/01 03:40:46;;;;;;;16.13;12.17;;;;;;;18.51;100.00;101460.63;2073459;28;20243;-66
2022/06/01 03:41:46;;;;;;;18.23;12.13;;;;;;;18.74;100.00;101490.91;2073384;28;20236;-64
2022/06/01 03:42:47;;;;;;;18.47;12.00;;;;;;;19.13;100.00;101546.94;2073681;28;20206;-64
2022/06/01 03:46:26;;;;;;;26.13;12.33;;;;;;;19.34;100.00;101548.81;2073491;28;20412;-65
2022/06/01 03:47:27;;;;;;;25.53;12.37;;;;;;;19.40;100.00;101552.53;2073561;28;20427;-65
2022/06/01 03:48:31;;;;;;;20.63;13.10;;;;;;;19.49;100.00;101543.34;2073241;28;20181;-64
2022/06/01 03:49:32;;;;;;;19.50;12.67;;;;;;;19.51;100.00;101541.63;2080958;28;20181;-64
2022/06/01 03:50:32;;;;;;;17.57;11.43;;;;;;;19.65;100.00;101551.44;2072597;28;20499;-64
2022/06/01 03:51:33;;;;;;;18.87;11.50;;;;;;;19.70;100.00;101568.44;2064770;28;20177;-65
2022/06/01 03:52:33;;;;;;;22.27;12.27;;;;;;;19.70;100.00;101551.56;2073438;28;20191;-64
2022/06/01 03:53:34;;;;;;;16.77;11.67;;;;;;;19.74;100.00;101554.97;2073284;28;20189;-65
2022/06/01 03:54:34;;;;;;;19.67;12.07;;;;;;;19.70;100.00;101560.00;2073327;28;20247;-64
2022/06/01 03:55:36;;;;;;;18.40;11.33;;;;;;;19.70;100.00;101553.59;2073442;28;20181;-64
2022/06/01 03:56:36;;;;;;;18.97;12.10;;;;;;;19.66;100.00;101555.78;2073535;28;20181;-64
2022/06/01 03:57:37;;;;;;;17.07;12.13;;;;;;;19.69;100.00;101546.41;2073308;28;20466;-65
2022/06/01 03:58:37;;;;;;;15.40;11.37;;;;;;;19.76;100.00;101552.47;2073356;28;20180;-65
2022/06/01 03:59:38;;;;;;;16.53;11.37;;;;;;;19.84;100.00;101547.28;2073370;28;20228;-65
2022/06/01 04:00:39;;;;;;;17.07;11.63;;;;;;;19.49;100.00;101485.06;2073313;28;20169;-65
2022/06/01 04:01:39;;;;;;;15.70;11.10;;;;;;;19.98;100.00;101552.25;2073278;28;20419;-65
2022/06/01 04:02:40;;;;;;;19.07;11.20;;;;;;;20.01;100.00;101554.88;2080954;28;20260;-64
2022/06/01 04:03:41;;;;;;;20.30;11.83;;;;;;;20.08;100.00;101557.41;2080616;28;20227;-65
2022/06/01 04:04:41;;;;;;;14.63;11.43;;;;;;;20.09;100.00;101550.53;2073295;28;20405;-65
2022/06/01 04:05:42;;;;;;;20.37;11.90;;;;;;;20.08;100.00;101548.97;2073249;28;20369;-64
2022/06/01 04:06:42;;;;;;;15.43;11.60;;;;;;;20.21;100.00;101560.00;2080845;28;20211;-65
2022/06/01 04:07:43;;;;;;;15.47;11.07;;;;;;;20.23;100.00;101555.47;2080845;28;20170;-65
2022/06/01 04:08:44;;;;;;;21.93;11.43;;;;;;;20.24;100.00;101554.19;2073369;28;20543;-65
2022/06/01 04:09:45;;;;;;;18.33;11.17;;;;;;;20.25;100.00;101549.34;2073398;28;20182;-64
2022/06/01 04:10:45;;;;;;;18.97;11.63;;;;;;;20.31;100.00;101550.28;2073131;28;20183;-65
2022/06/01 04:11:46;;;;;;;19.57;12.37;;;;;;;20.33;100.00;101553.38;2073185;28;20420;-65
2022/06/01 04:12:47;;;;;;;18.57;11.33;;;;;;;19.94;100.00;101501.78;2073201;28;20239;-64
2022/06/01 04:13:48;;;;;;;14.53;10.77;;;;;;;20.18;100.00;101518.72;2073119;28;20608;-65
2022/06/01 04:14:49;;;;;;;15.07;11.03;;;;;;;20.40;100.00;101550.19;2073265;28;20476;-65
2022/06/01 04:15:49;;;;;;;17.63;10.83;;;;;;;20.41;100.00;101546.16;2073037;28;20232;-65
2022/06/01 04:16:50;;;;;;;16.87;10.93;;;;;;;20.42;100.00;101545.66;2073207;28;20193;-64
2022/06/01 04:17:50;;;;;;;17.37;11.57;;;;;;;20.45;100.00;101546.72;2073240;28;20205;-65
2022/06/01 04:18:50;;;;;;;19.20;11.77;;;;;;;20.47;100.00;101539.34;2073217;28;20182;-64
2022/06/01 04:19:51;;;;;;;13.93;11.30;;;;;;;20.50;100.00;101543.25;2073174;28;20178;-65
2022/06/01 04:20:53;;;;;;;18.60;11.60;;;;;;;20.49;100.00;101545.31;2073106;28;20267;-64
2022/06/01 04:21:54;;;;;;;13.43;10.87;;;;;;;20.56;100.00;101544.94;2073160;28;20232;-65
2022/06/01 04:22:57;;;;;;;13.23;11.20;;;;;;;20.61;100.00;101549.91;2073223;28;20922;-64
2022/06/01 04:24:01;;;;;;;15.70;11.53;;;;;;;20.65;100.00;101549.72;2072802;28;20417;-64
2022/06/01 04:25:02;;;;;;;16.10;12.00;;;;;;;20.52;100.00;101527.44;2073207;28;20570;-65
2022/06/01 04:26:03;;;;;;;14.03;11.50;;;;;;;20.64;100.00;101546.16;2072926;28;20490;-64
2022/06/01 04:27:04;;;;;;;17.23;11.20;;;;;;;20.38;100.00;101508.47;2073271;28;20181;-64
2022/06/01 04:28:05;;;;;;;19.30;11.77;;;;;;;20.73;100.00;101546.06;2073047;28;20204;-65
2022/06/01 04:29:05;;;;;;;17.70;12.13;;;;;;;20.77;100.00;101554.38;2073224;28;20413;-64
2022/06/01 04:30:10;;;;;;;15.90;11.50;;;;;;;20.78;100.00;101550.28;2073038;28;20651;-65
2022/06/01 04:31:10;;;;;;;15.27;11.90;;;;;;;20.79;100.00;101558.25;2073185;28;20244;-65
2022/06/01 04:32:15;;;;;;;17.33;12.20;;;;;;;20.82;100.00;101542.44;2073095;28;20478;-65
2022/06/01 04:33:34;;;;;;;19.33;12.93;;;;;;;20.82;100.00;101548.06;2073225;28;20173;-65
2022/06/01 04:34:35;;;;;;;18.00;12.23;;;;;;;20.60;100.00;101514.56;2073076;28;20409;-64
2022/06/01 04:35:35;;;;;;;17.60;11.50;;;;;;;20.90;100.00;101554.91;2072980;28;20424;-65
2022/06/01 04:36:36;;;;;;;15.00;11.23;;;;;;;20.89;100.00;101558.97;2072898;28;20204;-65
2022/06/01 04:37:37;;;;;;;19.50;11.43;;;;;;;20.92;100.00;101555.97;2072898;28;20240;-65
2022/06/01 04:38:37;;;;;;;20.63;11.83;;;;;;;20.61;100.00;101492.81;2072834;28;20216;-65
2022/06/01 04:39:38;;;;;;;23.90;11.67;;;;;;;21.02;100.00;101553.88;2072807;28;20960;-65
2022/06/01 04:40:43;;;;;;;26.93;14.23;;;;;;;20.80;100.00;101523.19;2080256;28;20180;-64
2022/06/01 04:41:43;;;;;;;24.43;14.93;;;;;;;21.06;100.00;101548.84;2071504;28;20186;-65
2022/06/01 04:42:44;;;;;;;21.77;17.33;;;;;;;20.65;100.00;101477.28;2064405;28;20492;-64
2022/06/01 04:43:46;;;;;;;22.53;15.23;;;;;;;20.83;100.00;101488.41;2072723;28;20177;-65
2022/06/01 04:44:47;;;;;;;17.87;14.03;;;;;;;20.91;100.00;101508.56;2072890;28;20166;-64
2022/06/01 04:45:51;;;;;;;14.23;12.03;;;;;;;21.41;100.00;101566.69;2072665;28;20432;-65
2022/06/01 04:46:52;;;;;;;19.47;11.43;;;;;;;21.46;100.00;101566.81;2080365;28;20465;-64
2022/06/01 04:47:52;;;;;;;18.37;11.70;;;;;;;21.46;100.00;101552.69;2080429;28;20395;-65
2022/06/01 04:48:53;;;;;;;15.47;11.03;;;;;;;21.57;100.00;101583.13;2072694;28;20281;-65
2022/06/01 04:49:53;;;;;;;16.53;11.90;;;;;;;21.60;100.00;101565.25;2072627;28;20238;-66
2022/06/01 04:50:56;;;;;;;25.23;12.87;;;;;;;21.64;100.00;101563.03;2071372;28;20208;-65
2022/06/01 04:51:56;;;;;;;17.03;13.03;;;;;;;21.21;100.00;101493.25;2067163;28;20668;-65
2022/06/01 04:52:56;;;;;;;23.77;17.37;;;;;;;21.58;100.00;101562.91;2064580;28;20492;-64
2022/06/01 04:53:57;;;;;;;25.07;18.60;;;;;;;21.40;100.00;101531.28;2064987;28;20179;-65